Time,TemperatureF,DewpointF,PressureIn,WindDirection,WindDirectionDegrees,WindSpeedMPH,WindSpeedGustMPH,Humidity,HourlyPrecipIn,Conditions,Clouds,dailyrainin,SoftwareType,DateUTC
2013-04-27 00:01:00,56.0,52.0,30.14,West,259,0.0,-999.0,86,-99.99,,,-99.99,,2013-04-27 07:01:00,
2013-04-27 00:11:00,56.0,52.0,30.14,West,259,0.0,-999.0,86,-99.99,,,-99.99,,2013-04-27 07:11:00,
2013-04-27 00:21:00,56.0,52.0,30.14,West,259,0.0,-999.0,86,-99.99,,,-99.99,,2013-04-27 07:21:00,
2013-04-27 00:31:00,56.0,52.0,30.14,West,259,0.0,-999.0,86,-99.99,,,-99.99,,2013-04-27 07:31:00,
2013-04-27 00:42:00,56.0,52.0,30.14,West,259,0.0,-999.0,86,-99.99,,,-99.99,,2013-04-27 07:42:00,
2013-04-27 00:52:00,55.0,51.0,30.14,West,259,0.0,-999.0,87,-99.99,,,-99.99,,2013-04-27 07:52:00,
2013-04-27 01:01:00,55.0,51.0,30.14,West,259,0.0,-999.0,87,-99.99,,,-99.99,,2013-04-27 08:01:00,
2013-04-27 01:11:00,55.0,51.0,30.14,West,259,0.0,-999.0,87,-99.99,,,-99.99,,2013-04-27 08:11:00,
2013-04-27 01:21:00,54.0,50.0,30.14,West,259,0.0,-999.0,86,-99.99,,,-99.99,,2013-04-27 08:21:00,
2013-04-27 01:33:00,54.0,50.0,30.14,West,259,0.0,-999.0,86,-99.99,,,-99.99,,2013-04-27 08:33:00,
2013-04-27 01:42:00,54.0,50.0,30.14,West,259,0.0,-999.0,86,-99.99,,,-99.99,,2013-04-27 08:42:00,
2013-04-27 01:52:00,54.0,50.0,30.14,West,259,0.0,-999.0,86,-99.99,,,-99.99,,2013-04-27 08:52:00,
2013-04-27 02:01:00,54.0,50.0,30.14,West,259,0.0,-999.0,86,-99.99,,,-99.99,,2013-04-27 09:01:00,
2013-04-27 02:22:00,54.0,50.0,30.14,West,259,0.0,-999.0,87,-99.99,,,-99.99,,2013-04-27 09:22:00,
2013-04-27 02:33:00,54.0,50.0,30.14,West,259,0.0,-999.0,87,-99.99,,,-99.99,,2013-04-27 09:33:00,
2013-04-27 02:43:00,54.0,50.0,30.14,West,259,0.0,-999.0,87,-99.99,,,-99.99,,2013-04-27 09:43:00,
2013-04-27 02:53:00,53.0,49.0,30.13,West,259,1.0,-999.0,86,-99.99,,,-99.99,,2013-04-27 09:53:00,
2013-04-27 03:02:00,53.0,49.0,30.13,West,259,1.0,-999.0,86,-99.99,,,-99.99,,2013-04-27 10:02:00,
2013-04-27 03:12:00,53.0,49.0,30.13,West,259,1.0,-999.0,86,-99.99,,,-99.99,,2013-04-27 10:12:00,
2013-04-27 03:22:00,52.0,48.0,30.13,WNW,288,0.0,-999.0,86,-99.99,,,-99.99,,2013-04-27 10:22:00,
2013-04-27 03:32:00,52.0,48.0,30.13,WNW,288,0.0,-999.0,86,-99.99,,,-99.99,,2013-04-27 10:32:00,
2013-04-27 03:42:00,52.0,48.0,30.13,WNW,288,0.0,-999.0,86,-99.99,,,-99.99,,2013-04-27 10:42:00,
2013-04-27 03:52:00,52.0,48.0,30.13,WNW,288,0.0,-999.0,86,-99.99,,,-99.99,,2013-04-27 10:52:00,
2013-04-27 04:12:00,52.0,48.0,30.12,WNW,288,0.0,-999.0,87,-99.99,,,-99.99,,2013-04-27 11:12:00,
2013-04-27 04:22:00,52.0,48.0,30.12,WNW,288,0.0,-999.0,87,-99.99,,,-99.99,,2013-04-27 11:22:00,
2013-04-27 04:32:00,52.0,48.0,30.12,WNW,288,0.0,-999.0,87,-99.99,,,-99.99,,2013-04-27 11:32:00,
2013-04-27 04:42:00,52.0,48.0,30.12,WNW,288,0.0,-999.0,87,-99.99,,,-99.99,,2013-04-27 11:42:00,
2013-04-27 04:52:00,52.0,48.0,30.12,WNW,288,0.0,-999.0,87,-99.99,,,-99.99,,2013-04-27 11:52:00,
2013-04-27 05:01:00,52.0,48.0,30.12,WNW,288,0.0,-999.0,87,-99.99,,,-99.99,,2013-04-27 12:01:00,
2013-04-27 05:22:00,51.0,47.0,30.11,WNW,287,1.0,-999.0,87,-99.99,,,-99.99,,2013-04-27 12:22:00,
2013-04-27 05:32:00,51.0,47.0,30.11,WNW,287,1.0,-999.0,87,-99.99,,,-99.99,,2013-04-27 12:32:00,
2013-04-27 05:42:00,51.0,47.0,30.11,WNW,287,1.0,-999.0,87,-99.99,,,-99.99,,2013-04-27 12:42:00,
2013-04-27 05:52:00,51.0,47.0,30.11,WNW,287,1.0,-999.0,87,-99.99,,,-99.99,,2013-04-27 12:52:00,
2013-04-27 06:01:00,51.0,47.0,30.11,WNW,287,1.0,-999.0,87,-99.99,,,-99.99,,2013-04-27 13:01:00,
2013-04-27 07:22:00,52.0,49.0,30.13,WNW,284,0.0,-999.0,91,-99.99,,,-99.99,,2013-04-27 14:22:00,
2013-04-27 07:32:00,52.0,49.0,30.13,WNW,284,0.0,-999.0,91,-99.99,,,-99.99,,2013-04-27 14:32:00,
2013-04-27 07:42:00,52.0,49.0,30.13,WNW,284,0.0,-999.0,91,-99.99,,,-99.99,,2013-04-27 14:42:00,
2013-04-27 07:52:00,52.0,49.0,30.13,WNW,284,0.0,-999.0,91,-99.99,,,-99.99,,2013-04-27 14:52:00,
2013-04-27 08:01:00,52.0,49.0,30.13,WNW,284,0.0,-999.0,91,-99.99,,,-99.99,,2013-04-27 15:01:00,
2013-04-27 08:53:00,56.0,53.0,30.14,WNW,283,0.0,-999.0,91,-99.99,,,-99.99,,2013-04-27 15:53:00,
2013-04-27 09:02:00,56.0,53.0,30.14,WNW,283,0.0,-999.0,91,-99.99,,,-99.99,,2013-04-27 16:02:00,
2013-04-27 09:13:00,56.0,53.0,30.14,WNW,283,0.0,-999.0,91,-99.99,,,-99.99,,2013-04-27 16:13:00,
2013-04-27 09:22:00,59.0,54.0,30.14,WNW,283,2.0,-999.0,83,-99.99,,,-99.99,,2013-04-27 16:22:00,
2013-04-27 09:32:00,59.0,54.0,30.14,WNW,283,2.0,-999.0,83,-99.99,,,-99.99,,2013-04-27 16:32:00,
2013-04-27 09:42:00,59.0,54.0,30.14,WNW,283,2.0,-999.0,83,-99.99,,,-99.99,,2013-04-27 16:42:00,
2013-04-27 09:52:00,59.0,54.0,30.14,WNW,283,2.0,-999.0,83,-99.99,,,-99.99,,2013-04-27 16:52:00,
2013-04-27 10:01:00,59.0,54.0,30.14,WNW,283,2.0,-999.0,83,-99.99,,,-99.99,,2013-04-27 17:01:00,
2013-04-27 10:22:00,66.0,54.0,30.14,WSW,246,3.0,-999.0,66,-99.99,,,-99.99,,2013-04-27 17:22:00,
2013-04-27 10:32:00,66.0,54.0,30.14,WSW,246,3.0,-999.0,66,-99.99,,,-99.99,,2013-04-27 17:32:00,
2013-04-27 10:42:00,66.0,54.0,30.14,WSW,246,3.0,-999.0,66,-99.99,,,-99.99,,2013-04-27 17:42:00,
2013-04-27 10:53:00,66.0,54.0,30.14,West,281,6.0,-999.0,65,-99.99,,,-99.99,,2013-04-27 17:53:00,
2013-04-27 11:02:00,66.0,54.0,30.14,West,281,6.0,-999.0,65,-99.99,,,-99.99,,2013-04-27 18:02:00,
2013-04-27 11:11:00,66.0,54.0,30.14,West,281,6.0,-999.0,65,-99.99,,,-99.99,,2013-04-27 18:11:00,
2013-04-27 11:21:00,66.0,54.0,30.14,West,281,6.0,-999.0,65,-99.99,,,-99.99,,2013-04-27 18:21:00,
2013-04-27 11:31:00,66.0,54.0,30.14,West,281,6.0,-999.0,65,-99.99,,,-99.99,,2013-04-27 18:31:00,
2013-04-27 12:53:00,68.0,54.0,30.13,WNW,284,7.0,-999.0,62,-99.99,,,-99.99,,2013-04-27 19:53:00,
2013-04-27 13:02:00,68.0,54.0,30.13,WNW,284,7.0,-999.0,62,-99.99,,,-99.99,,2013-04-27 20:02:00,
2013-04-27 13:11:00,68.0,54.0,30.13,WNW,284,7.0,-999.0,62,-99.99,,,-99.99,,2013-04-27 20:11:00,
2013-04-27 13:21:00,68.0,54.0,30.12,West,273,7.0,-999.0,60,-99.99,,,-99.99,,2013-04-27 20:21:00,
2013-04-27 13:31:00,68.0,54.0,30.12,West,273,7.0,-999.0,60,-99.99,,,-99.99,,2013-04-27 20:31:00,
2013-04-27 13:42:00,68.0,54.0,30.12,West,273,7.0,-999.0,60,-99.99,,,-99.99,,2013-04-27 20:42:00,
2013-04-27 13:52:00,68.0,53.0,30.11,SW,220,7.0,-999.0,59,-99.99,,,-99.99,,2013-04-27 20:52:00,
2013-04-27 14:01:00,68.0,53.0,30.11,SW,220,7.0,-999.0,59,-99.99,,,-99.99,,2013-04-27 21:01:00,
2013-04-27 14:11:00,68.0,53.0,30.11,SW,220,7.0,-999.0,59,-99.99,,,-99.99,,2013-04-27 21:11:00,
2013-04-27 14:21:00,68.0,54.0,30.09,WNW,302,8.0,-999.0,60,-99.99,,,-99.99,,2013-04-27 21:21:00,
2013-04-27 14:32:00,68.0,54.0,30.09,WNW,302,8.0,-999.0,60,-99.99,,,-99.99,,2013-04-27 21:32:00,
2013-04-27 14:43:00,68.0,54.0,30.09,WNW,302,8.0,-999.0,60,-99.99,,,-99.99,,2013-04-27 21:43:00,
2013-04-27 14:53:00,68.0,53.0,30.08,West,279,8.0,-999.0,59,-99.99,,,-99.99,,2013-04-27 21:53:00,
2013-04-27 15:02:00,68.0,53.0,30.08,West,279,8.0,-999.0,59,-99.99,,,-99.99,,2013-04-27 22:02:00,
2013-04-27 15:12:00,68.0,53.0,30.08,West,279,8.0,-999.0,59,-99.99,,,-99.99,,2013-04-27 22:12:00,
2013-04-27 15:22:00,68.0,53.0,30.06,WNW,298,7.0,-999.0,58,-99.99,,,-99.99,,2013-04-27 22:22:00,
2013-04-27 15:32:00,68.0,53.0,30.06,WNW,298,7.0,-999.0,58,-99.99,,,-99.99,,2013-04-27 22:32:00,
2013-04-27 15:42:00,68.0,53.0,30.06,WNW,298,7.0,-999.0,58,-99.99,,,-99.99,,2013-04-27 22:42:00,
2013-04-27 15:52:00,67.0,52.0,30.05,WNW,296,6.0,-999.0,59,-99.99,,,-99.99,,2013-04-27 22:52:00,
2013-04-27 16:02:00,67.0,52.0,30.05,WNW,296,6.0,-999.0,59,-99.99,,,-99.99,,2013-04-27 23:02:00,
2013-04-27 16:11:00,67.0,52.0,30.05,WNW,296,6.0,-999.0,59,-99.99,,,-99.99,,2013-04-27 23:11:00,
2013-04-27 16:22:00,67.0,52.0,30.05,WNW,296,6.0,-999.0,59,-99.99,,,-99.99,,2013-04-27 23:22:00,
2013-04-27 16:52:00,65.0,52.0,30.04,WNW,290,8.0,-999.0,63,-99.99,,,-99.99,,2013-04-27 23:52:00,
2013-04-27 17:01:00,65.0,52.0,30.04,WNW,290,8.0,-999.0,63,-99.99,,,-99.99,,2013-04-28 00:01:00,
2013-04-27 17:11:00,65.0,52.0,30.04,WNW,290,8.0,-999.0,63,-99.99,,,-99.99,,2013-04-28 00:11:00,
2013-04-27 17:21:00,65.0,52.0,30.04,WNW,290,8.0,-999.0,63,-99.99,,,-99.99,,2013-04-28 00:21:00,
2013-04-27 17:31:00,65.0,52.0,30.04,WNW,290,8.0,-999.0,63,-99.99,,,-99.99,,2013-04-28 00:31:00,
2013-04-27 17:52:00,64.0,53.0,30.02,WSW,241,7.0,-999.0,68,-99.99,,,-99.99,,2013-04-28 00:52:00,
2013-04-27 18:01:00,64.0,53.0,30.02,WSW,241,7.0,-999.0,68,-99.99,,,-99.99,,2013-04-28 01:01:00,
2013-04-27 18:11:00,64.0,53.0,30.02,WSW,241,7.0,-999.0,68,-99.99,,,-99.99,,2013-04-28 01:11:00,
2013-04-27 18:21:00,63.0,53.0,30.02,WSW,253,5.0,-999.0,70,-99.99,,,-99.99,,2013-04-28 01:21:00,
2013-04-27 18:31:00,63.0,53.0,30.02,WSW,253,5.0,-999.0,70,-99.99,,,-99.99,,2013-04-28 01:31:00,
2013-04-27 18:42:00,63.0,53.0,30.02,WSW,253,5.0,-999.0,70,-99.99,,,-99.99,,2013-04-28 01:42:00,
2013-04-27 18:52:00,63.0,53.0,30.02,WSW,253,5.0,-999.0,70,-99.99,,,-99.99,,2013-04-28 01:52:00,
2013-04-27 19:01:00,63.0,53.0,30.02,WSW,253,5.0,-999.0,70,-99.99,,,-99.99,,2013-04-28 02:01:00,
2013-04-27 20:22:00,58.0,53.0,30.00,West,281,2.0,-999.0,82,-99.99,,,-99.99,,2013-04-28 03:22:00,
2013-04-27 20:33:00,58.0,53.0,30.00,West,281,2.0,-999.0,82,-99.99,,,-99.99,,2013-04-28 03:33:00,
2013-04-27 20:43:00,58.0,53.0,30.00,West,281,2.0,-999.0,82,-99.99,,,-99.99,,2013-04-28 03:43:00,
2013-04-27 20:53:00,58.0,53.0,30.00,West,281,2.0,-999.0,84,-99.99,,,-99.99,,2013-04-28 03:53:00,
2013-04-27 21:02:00,58.0,53.0,30.00,West,281,2.0,-999.0,84,-99.99,,,-99.99,,2013-04-28 04:02:00,
2013-04-27 21:13:00,58.0,53.0,30.00,West,281,2.0,-999.0,84,-99.99,,,-99.99,,2013-04-28 04:13:00,
2013-04-27 21:22:00,57.0,52.0,30.01,WNW,282,2.0,-999.0,84,-99.99,,,-99.99,,2013-04-28 04:22:00,
2013-04-27 21:32:00,57.0,52.0,30.01,WNW,282,2.0,-999.0,84,-99.99,,,-99.99,,2013-04-28 04:32:00,
2013-04-27 21:43:00,57.0,52.0,30.01,WNW,282,2.0,-999.0,84,-99.99,,,-99.99,,2013-04-28 04:43:00,
2013-04-27 21:53:00,57.0,52.0,30.01,WNW,282,2.0,-999.0,84,-99.99,,,-99.99,,2013-04-28 04:53:00,
2013-04-27 22:02:00,57.0,52.0,30.01,WNW,282,2.0,-999.0,84,-99.99,,,-99.99,,2013-04-28 05:02:00,
2013-04-27 22:52:00,57.0,53.0,30.01,WNW,282,1.0,-999.0,86,-99.99,,,-99.99,,2013-04-28 05:52:00,
2013-04-27 23:01:00,57.0,53.0,30.01,WNW,282,1.0,-999.0,86,-99.99,,,-99.99,,2013-04-28 06:01:00,
2013-04-27 23:12:00,57.0,53.0,30.01,WNW,282,1.0,-999.0,86,-99.99,,,-99.99,,2013-04-28 06:12:00,
2013-04-27 23:21:00,57.0,53.0,30.01,WNW,282,1.0,-999.0,86,-99.99,,,-99.99,,2013-04-28 06:21:00,
2013-04-27 23:32:00,57.0,53.0,30.01,WNW,282,1.0,-999.0,86,-99.99,,,-99.99,,2013-04-28 06:32:00,
2013-04-27 23:42:00,57.0,53.0,30.01,WNW,282,1.0,-999.0,86,-99.99,,,-99.99,,2013-04-28 06:42:00,
2013-04-27 23:52:00,57.0,53.0,30.01,WNW,282,1.0,-999.0,86,-99.99,,,-99.99,,2013-04-28 06:52:00,